createdAt,value
2018-12-14T00:00:14.069Z,7.83
2018-12-14T00:02:44.675Z,7.37
2018-12-14T00:05:15.292Z,7.60
2018-12-14T00:07:45.975Z,7.90
2018-12-14T00:10:14.822Z,8.40
2018-12-14T00:12:43.514Z,8.47
2018-12-14T00:15:12.319Z,8.40
2018-12-14T00:17:42.113Z,8.50
2018-12-14T00:20:10.912Z,8.17
2018-12-14T00:22:39.968Z,8.77
2018-12-14T00:25:08.775Z,8.97
2018-12-14T00:27:37.707Z,8.80
2018-12-14T00:30:08.075Z,8.70
2018-12-14T00:32:36.751Z,8.97
2018-12-14T00:35:05.846Z,9.20
2018-12-14T00:37:34.556Z,9.10
2018-12-14T00:40:03.453Z,8.83
2018-12-14T00:42:32.234Z,9.80
2018-12-14T00:45:01.173Z,9.47
2018-12-14T00:47:29.960Z,8.73
2018-12-14T00:49:58.666Z,9.83
2018-12-14T00:52:27.476Z,9.03
2018-12-14T00:54:56.291Z,10.47
2018-12-14T00:57:25.120Z,10.97
2018-12-14T00:59:53.838Z,9.37
2018-12-14T01:02:28.687Z,10.37
2018-12-14T01:04:57.892Z,10.07
2018-12-14T01:07:27.207Z,9.78
2018-12-14T01:09:55.980Z,9.67
2018-12-14T01:12:24.715Z,9.27
2018-12-14T01:14:53.536Z,9.53
2018-12-14T01:17:22.261Z,9.50
2018-12-14T01:19:51.037Z,9.40
2018-12-14T01:22:19.971Z,9.40
2018-12-14T01:24:48.713Z,8.80
2018-12-14T01:27:17.465Z,9.87
2018-12-14T01:29:46.205Z,9.03
2018-12-14T01:32:14.893Z,9.07
2018-12-14T01:34:43.708Z,8.83
2018-12-14T01:37:12.527Z,8.87
2018-12-14T01:39:41.190Z,9.37
2018-12-14T01:42:10.394Z,8.87
2018-12-14T01:44:39.205Z,8.77
2018-12-14T01:47:08.220Z,9.33
2018-12-14T01:49:36.977Z,9.43
2018-12-14T01:52:05.790Z,9.60
2018-12-14T01:54:34.464Z,9.20
2018-12-14T01:57:03.448Z,8.93
2018-12-14T01:59:32.192Z,9.13
2018-12-14T02:02:01.005Z,9.23
2018-12-14T02:04:31.071Z,10.00
2018-12-14T02:06:59.887Z,9.27
2018-12-14T02:09:28.880Z,9.33
2018-12-14T02:11:57.620Z,9.33
2018-12-14T02:14:26.316Z,8.90
2018-12-14T02:16:55.063Z,9.27
2018-12-14T02:19:23.750Z,8.57
2018-12-14T02:21:52.516Z,9.67
2018-12-14T02:24:21.530Z,9.00
2018-12-14T02:26:50.155Z,9.37
2018-12-14T02:29:18.915Z,9.00
2018-12-14T02:31:47.603Z,9.00
2018-12-14T02:34:22.809Z,8.27
2018-12-14T02:36:51.645Z,9.03
2018-12-14T02:39:20.383Z,9.37
2018-12-14T02:41:49.201Z,9.07
2018-12-14T02:44:18.076Z,9.27
2018-12-14T02:46:46.819Z,9.07
2018-12-14T02:49:22.393Z,9.43
2018-12-14T02:51:51.254Z,9.07
2018-12-14T02:54:19.995Z,8.70
2018-12-14T02:56:48.759Z,9.23
2018-12-14T02:59:17.441Z,9.77
2018-12-14T03:01:46.176Z,8.97
2018-12-14T03:04:14.936Z,10.00
2018-12-14T03:06:43.696Z,10.10
2018-12-14T03:09:12.504Z,10.37
2018-12-14T03:11:41.183Z,9.23
2018-12-14T03:14:10.816Z,9.53
2018-12-14T03:16:39.502Z,9.43
2018-12-14T03:19:08.348Z,9.57
2018-12-14T03:21:37.019Z,8.03
2018-12-14T03:24:05.912Z,8.47
2018-12-14T03:26:34.923Z,8.83
2018-12-14T03:29:03.744Z,8.50
2018-12-14T03:31:32.460Z,8.33
2018-12-14T03:34:01.180Z,8.57
2018-12-14T03:36:29.956Z,8.00
2018-12-14T03:38:58.720Z,8.30
2018-12-14T03:41:27.575Z,7.67
2018-12-14T03:43:56.264Z,8.93
2018-12-14T03:46:25.023Z,8.83
2018-12-14T03:48:53.775Z,8.33
2018-12-14T03:51:26.841Z,10.27
2018-12-14T03:53:55.609Z,8.90
2018-12-14T03:56:24.608Z,8.63
2018-12-14T03:58:53.415Z,8.43
2018-12-14T04:01:22.156Z,8.53
2018-12-14T04:03:50.833Z,8.63
2018-12-14T04:06:19.593Z,8.80
2018-12-14T04:08:50.206Z,8.53
2018-12-14T04:11:19.017Z,8.30
2018-12-14T04:13:47.694Z,8.53
2018-12-14T04:16:16.499Z,8.60
2018-12-14T04:18:45.249Z,8.13
2018-12-14T04:21:16.568Z,8.07
2018-12-14T04:23:45.337Z,10.20
2018-12-14T04:26:14.026Z,23.67
2018-12-14T04:28:42.771Z,12.50
2018-12-14T04:31:11.455Z,10.27
2018-12-14T04:33:40.159Z,8.60
2018-12-14T04:36:08.888Z,8.77
2018-12-14T04:38:40.163Z,8.10
2018-12-14T04:41:08.898Z,9.23
2018-12-14T04:43:37.680Z,9.20
2018-12-14T04:46:06.357Z,9.50
2018-12-14T04:48:35.108Z,9.63
2018-12-14T04:51:03.972Z,9.00
2018-12-14T04:53:32.759Z,7.83
2018-12-14T04:56:01.471Z,8.30
2018-12-14T04:58:30.293Z,7.40
2018-12-14T05:00:59.149Z,6.77
2018-12-14T05:03:27.908Z,7.87
2018-12-14T05:05:56.620Z,7.83
2018-12-14T05:08:25.463Z,6.47
2018-12-14T05:10:54.138Z,6.50
2018-12-14T05:13:23.029Z,6.83
2018-12-14T05:15:51.713Z,7.27
2018-12-14T05:18:20.375Z,7.10
2018-12-14T05:20:49.062Z,7.70
2018-12-14T05:23:17.728Z,6.87
2018-12-14T05:25:46.497Z,7.23
2018-12-14T05:28:15.243Z,7.20
2018-12-14T05:30:43.909Z,6.50
2018-12-14T05:33:12.583Z,6.83
2018-12-14T05:35:41.802Z,7.33
2018-12-14T05:38:10.546Z,8.23
2018-12-14T05:40:39.242Z,8.10
2018-12-14T05:43:07.968Z,7.83
2018-12-14T05:45:36.661Z,8.03
2018-12-14T05:48:05.357Z,8.00
2018-12-14T05:50:34.143Z,7.50
2018-12-14T05:53:02.820Z,8.10
2018-12-14T05:55:31.507Z,8.90
2018-12-14T05:58:00.194Z,8.20
2018-12-14T06:00:28.880Z,7.93
2018-12-14T06:02:57.639Z,8.10
2018-12-14T06:05:26.320Z,7.87
2018-12-14T06:07:55.001Z,7.90
2018-12-14T06:10:24.775Z,9.00
2018-12-14T06:12:53.483Z,8.60
2018-12-14T06:15:22.341Z,8.63
2018-12-14T06:17:51.079Z,8.23
2018-12-14T06:20:19.760Z,8.50
2018-12-14T06:22:48.504Z,9.03
2018-12-14T06:25:17.183Z,8.70
2018-12-14T06:27:46.371Z,9.20
2018-12-14T06:30:15.187Z,8.63
2018-12-14T06:32:43.949Z,9.07
2018-12-14T06:35:12.805Z,8.43
2018-12-14T06:37:42.065Z,8.53
2018-12-14T06:40:10.957Z,7.67
2018-12-14T06:42:39.699Z,8.43
2018-12-14T06:45:09.020Z,7.93
2018-12-14T06:47:37.836Z,9.07
2018-12-14T06:50:07.632Z,8.00
2018-12-14T06:52:36.359Z,9.30
2018-12-14T06:55:05.465Z,10.30
2018-12-14T06:57:34.186Z,10.10
2018-12-14T07:00:03.240Z,9.73
2018-12-14T07:02:32.072Z,10.43
2018-12-14T07:05:00.816Z,10.50
2018-12-14T07:07:29.522Z,12.17
2018-12-14T07:09:58.268Z,13.93
2018-12-14T07:12:26.995Z,13.50
2018-12-14T07:14:55.728Z,12.30
2018-12-14T07:17:24.489Z,12.60
2018-12-14T07:19:54.162Z,13.73
2018-12-14T07:22:22.863Z,13.47
2018-12-14T07:24:51.600Z,12.73
2018-12-14T07:27:20.443Z,10.60
2018-12-14T07:29:49.262Z,10.33
2018-12-14T07:32:18.089Z,11.00
2018-12-14T07:34:46.944Z,10.33
2018-12-14T07:37:15.639Z,12.17
2018-12-14T07:39:44.398Z,14.80
2018-12-14T07:47:11.988Z,10.43
2018-12-14T07:49:40.783Z,9.93
2018-12-14T07:52:09.560Z,10.80
2018-12-14T07:54:38.303Z,10.87
2018-12-14T07:57:07.043Z,10.93
2018-12-14T07:59:35.836Z,12.03
2018-12-14T08:02:04.604Z,12.30
2018-12-14T08:04:33.603Z,11.90
2018-12-14T08:07:02.651Z,10.60
2018-12-14T08:09:31.532Z,11.53
2018-12-14T08:12:00.220Z,13.70
2018-12-14T08:14:29.048Z,15.30
2018-12-14T08:16:57.783Z,14.13
2018-12-14T08:19:26.500Z,12.10
2018-12-14T08:21:55.285Z,10.80
2018-12-14T08:24:24.020Z,11.57
2018-12-14T08:26:52.869Z,22.67
2018-12-14T08:29:21.639Z,18.70
2018-12-14T08:31:50.495Z,16.03
2018-12-14T08:34:19.397Z,15.60
2018-12-14T08:36:48.244Z,13.07
2018-12-14T08:39:16.957Z,11.67
2018-12-14T08:41:45.724Z,10.07
2018-12-14T08:44:15.007Z,11.13
2018-12-14T08:46:43.848Z,10.57
2018-12-14T08:49:12.524Z,10.23
2018-12-14T08:51:41.425Z,9.67
2018-12-14T08:54:13.288Z,9.40
2018-12-14T08:56:42.139Z,10.20
2018-12-14T08:59:10.887Z,10.33
2018-12-14T09:01:39.669Z,11.90
2018-12-14T09:04:08.431Z,11.73
2018-12-14T09:06:37.622Z,10.77
2018-12-14T09:09:07.109Z,10.87
2018-12-14T09:11:37.073Z,10.50
2018-12-14T09:14:05.867Z,11.03
2018-12-14T09:16:34.553Z,12.23
2018-12-14T09:19:03.333Z,11.53
2018-12-14T09:21:32.019Z,11.50
2018-12-14T09:24:00.807Z,8.73
2018-12-14T09:26:29.683Z,8.70
2018-12-14T09:28:58.690Z,9.60
2018-12-14T09:31:28.091Z,8.97
2018-12-14T09:33:56.879Z,9.17
2018-12-14T09:36:25.667Z,9.03
2018-12-14T09:38:54.448Z,8.07
2018-12-14T09:41:23.212Z,9.10
2018-12-14T09:43:54.484Z,7.95
2018-12-14T09:46:22.680Z,7.50
2018-12-14T09:48:51.408Z,8.27
2018-12-14T09:51:20.151Z,7.60
2018-12-14T09:53:48.883Z,8.20
2018-12-14T09:56:17.571Z,8.10
2018-12-14T09:58:46.260Z,7.70
2018-12-14T10:01:15.925Z,8.47
2018-12-14T10:03:44.763Z,7.93
2018-12-14T10:06:15.878Z,8.13
2018-12-14T10:08:44.178Z,7.60
2018-12-14T10:11:13.079Z,7.67
2018-12-14T10:13:41.933Z,8.40
2018-12-14T10:16:10.959Z,8.50
2018-12-14T10:18:40.013Z,7.37
2018-12-14T10:21:08.817Z,7.87
2018-12-14T10:23:37.532Z,8.20
2018-12-14T10:26:06.362Z,7.73
2018-12-14T10:28:35.266Z,8.00
2018-12-14T10:31:04.059Z,7.80
2018-12-14T10:33:32.831Z,8.50
2018-12-14T10:36:01.527Z,8.10
2018-12-14T10:38:30.308Z,8.03
2018-12-14T10:40:59.263Z,8.40
2018-12-14T10:43:28.095Z,7.63
2018-12-14T10:45:56.931Z,7.20
2018-12-14T10:48:25.734Z,7.73
2018-12-14T10:50:54.706Z,8.60
2018-12-14T10:53:23.424Z,8.27
2018-12-14T10:55:52.163Z,8.00
2018-12-14T10:58:20.888Z,8.43
2018-12-14T11:00:55.218Z,9.80
2018-12-14T11:03:23.951Z,8.70
2018-12-14T11:05:52.700Z,8.87
2018-12-14T11:08:21.435Z,8.00
2018-12-14T11:10:50.239Z,7.97
2018-12-14T11:13:18.929Z,8.00
2018-12-14T11:15:47.851Z,8.03
2018-12-14T11:18:16.778Z,8.07
2018-12-14T11:20:45.472Z,7.50
2018-12-14T11:23:14.304Z,7.43
2018-12-14T11:25:43.125Z,7.90
2018-12-14T11:28:11.946Z,8.30
2018-12-14T11:30:40.664Z,8.63
2018-12-14T11:33:09.467Z,9.57
2018-12-14T11:35:38.263Z,8.40
2018-12-14T11:38:07.041Z,8.30
2018-12-14T11:40:35.820Z,8.70
2018-12-14T11:43:04.829Z,9.23
2018-12-14T11:45:33.643Z,8.80
2018-12-14T11:48:02.453Z,8.20
2018-12-14T11:50:31.515Z,7.73
2018-12-14T11:53:00.257Z,8.37
2018-12-14T11:55:29.039Z,8.67
2018-12-14T11:57:57.726Z,8.77
2018-12-14T12:00:26.575Z,8.73
2018-12-14T12:02:55.388Z,9.03
2018-12-14T12:05:24.135Z,8.33
2018-12-14T12:07:53.172Z,8.23
2018-12-14T12:10:21.982Z,7.57
2018-12-14T12:12:50.689Z,7.70
2018-12-14T12:15:19.433Z,8.77
2018-12-14T12:17:49.614Z,8.77
2018-12-14T12:20:19.657Z,8.73
2018-12-14T12:22:48.368Z,9.63
2018-12-14T12:25:17.159Z,8.87
2018-12-14T12:27:45.836Z,9.40
2018-12-14T12:30:14.651Z,10.00
2018-12-14T12:32:43.357Z,10.63
2018-12-14T12:35:12.303Z,10.48
2018-12-14T12:37:41.165Z,9.03
2018-12-14T12:40:10.509Z,9.30
2018-12-14T12:42:39.401Z,10.03
2018-12-14T12:45:08.463Z,9.57
2018-12-14T12:47:37.273Z,8.87
2018-12-14T12:50:06.568Z,8.70
2018-12-14T12:52:35.878Z,9.00
2018-12-14T12:55:04.932Z,8.70
2018-12-14T12:57:33.732Z,8.90
2018-12-14T13:00:02.532Z,12.47
2018-12-14T13:02:32.025Z,14.47
2018-12-14T13:05:00.865Z,14.13
2018-12-14T13:07:29.801Z,17.07
2018-12-14T13:09:58.608Z,22.40
2018-12-14T13:12:27.438Z,16.93
2018-12-14T13:14:56.181Z,19.50
2018-12-14T13:17:25.011Z,16.97
2018-12-14T13:19:53.779Z,14.07
2018-12-14T13:22:22.548Z,11.97
2018-12-14T13:24:52.233Z,11.43
2018-12-14T13:27:21.052Z,12.03
2018-12-14T13:29:49.770Z,11.50
2018-12-14T13:32:18.528Z,10.53
2018-12-14T13:34:47.520Z,10.27
2018-12-14T13:37:16.320Z,10.07
2018-12-14T13:39:45.190Z,9.50
2018-12-14T13:42:13.983Z,9.77
2018-12-14T13:44:46.492Z,9.83
2018-12-14T13:47:13.888Z,9.70
2018-12-14T13:49:42.688Z,11.67
2018-12-14T13:52:11.613Z,11.47
2018-12-14T13:54:40.479Z,10.63
2018-12-14T13:57:09.195Z,10.43
2018-12-14T13:59:38.059Z,10.70
2018-12-14T14:02:06.864Z,14.27
2018-12-14T14:04:35.954Z,12.90
2018-12-14T14:07:04.885Z,15.57
2018-12-14T14:09:33.826Z,18.07
2018-12-14T14:12:02.645Z,15.57
2018-12-14T14:14:31.421Z,13.23
2018-12-14T14:17:00.416Z,11.13
2018-12-14T14:19:29.362Z,11.20
2018-12-14T14:21:58.114Z,10.50
2018-12-14T14:24:26.998Z,11.10
2018-12-14T14:26:56.744Z,9.90
2018-12-14T14:29:25.520Z,9.80
2018-12-14T14:31:54.371Z,10.77
2018-12-14T14:34:23.135Z,11.20
2018-12-14T14:36:51.961Z,11.13
2018-12-14T14:39:20.683Z,10.90
2018-12-14T14:41:49.572Z,10.97
2018-12-14T14:44:18.297Z,11.17
2018-12-14T14:46:47.959Z,10.70
2018-12-14T14:49:16.681Z,11.13
2018-12-14T14:51:45.784Z,10.93
2018-12-14T14:54:14.576Z,11.27
2018-12-14T14:56:43.377Z,11.73
2018-12-14T14:59:12.187Z,10.87
2018-12-14T15:01:40.941Z,11.00
2018-12-14T15:04:09.696Z,11.23
2018-12-14T15:06:38.439Z,11.10
2018-12-14T15:09:08.727Z,11.17
2018-12-14T15:11:38.379Z,10.57
2018-12-14T15:14:07.273Z,11.53
2018-12-14T15:16:36.024Z,12.70
2018-12-14T15:19:04.873Z,13.93
2018-12-14T15:21:33.718Z,15.73
2018-12-14T15:24:02.496Z,15.97
2018-12-14T15:26:31.407Z,16.70
2018-12-14T15:29:00.218Z,15.47
2018-12-14T15:31:28.963Z,12.73
2018-12-14T15:33:57.757Z,11.93
2018-12-14T15:36:26.436Z,12.37
2018-12-14T15:38:55.197Z,11.80
2018-12-14T15:41:23.960Z,11.97
2018-12-14T15:43:52.671Z,11.77
2018-12-14T15:46:21.380Z,12.17
2018-12-14T15:48:50.158Z,11.93
2018-12-14T15:51:18.965Z,12.63
2018-12-14T15:53:48.224Z,13.87
2018-12-14T15:56:16.977Z,13.60
2018-12-14T15:58:45.797Z,13.57
2018-12-14T16:01:14.691Z,13.17
2018-12-14T16:03:43.691Z,14.13
2018-12-14T16:06:12.548Z,12.80
2018-12-14T16:08:41.512Z,12.90
2018-12-14T16:11:10.223Z,13.03
2018-12-14T16:13:38.985Z,13.37
2018-12-14T16:16:07.796Z,13.63
2018-12-14T16:18:36.696Z,13.67
2018-12-14T16:21:05.543Z,16.07
2018-12-14T16:23:34.418Z,17.33
2018-12-14T16:26:03.232Z,15.30
2018-12-14T16:28:31.996Z,14.83
2018-12-14T16:31:00.852Z,14.10
2018-12-14T16:33:29.684Z,12.20
2018-12-14T16:35:58.455Z,11.48
2018-12-14T16:38:27.159Z,13.07
2018-12-14T16:40:56.111Z,13.67
2018-12-14T16:43:24.884Z,13.88
2018-12-14T16:45:53.644Z,13.37
2018-12-14T16:48:22.419Z,13.03
2018-12-14T16:50:51.186Z,13.90
2018-12-14T16:53:19.963Z,14.63
2018-12-14T16:55:49.210Z,14.63
2018-12-14T16:58:18.088Z,14.73
2018-12-14T17:00:46.933Z,16.07
2018-12-14T17:03:15.889Z,16.67
2018-12-14T17:05:44.752Z,17.57
2018-12-14T17:08:13.491Z,17.73
2018-12-14T17:10:42.255Z,18.17
2018-12-14T17:13:10.945Z,17.17
2018-12-14T17:15:39.698Z,18.53
2018-12-14T17:18:08.508Z,18.37
2018-12-14T17:20:37.281Z,18.83
2018-12-14T17:23:07.062Z,18.00
2018-12-14T17:25:35.854Z,18.30
2018-12-14T17:28:04.672Z,20.80
2018-12-14T17:30:33.423Z,18.80
2018-12-14T17:33:03.137Z,19.47
2018-12-14T17:35:31.994Z,19.00
2018-12-14T17:38:00.801Z,18.37
2018-12-14T17:40:31.535Z,19.03
2018-12-14T17:43:00.372Z,18.93
2018-12-14T17:45:29.125Z,18.80
2018-12-14T17:47:57.909Z,18.57
2018-12-14T17:50:26.750Z,17.80
2018-12-14T17:53:02.229Z,17.90
2018-12-14T17:55:30.991Z,16.53
2018-12-14T17:57:59.741Z,17.63
2018-12-14T18:00:28.551Z,18.27
2018-12-14T18:02:57.264Z,16.20
2018-12-14T18:05:26.100Z,17.77
2018-12-14T18:07:54.771Z,17.93
2018-12-14T18:10:23.454Z,19.27
2018-12-14T18:12:52.191Z,20.47
2018-12-14T18:15:20.908Z,21.87
2018-12-14T18:17:49.694Z,20.87
2018-12-14T18:20:18.511Z,17.77
2018-12-14T18:22:47.363Z,17.70
2018-12-14T18:25:16.525Z,18.07
2018-12-14T18:27:45.327Z,16.67
2018-12-14T18:30:14.079Z,16.93
2018-12-14T18:32:42.770Z,17.57
2018-12-14T18:35:11.968Z,16.90
2018-12-14T18:37:40.798Z,17.40
2018-12-14T18:40:09.599Z,17.27
2018-12-14T18:42:38.320Z,17.67
2018-12-14T18:45:07.399Z,17.47
2018-12-14T18:47:36.120Z,17.47
2018-12-14T18:50:05.705Z,16.83
2018-12-14T18:55:09.620Z,16.73
2018-12-14T18:57:38.428Z,16.53
2018-12-14T19:00:08.888Z,16.33
2018-12-14T19:02:37.766Z,17.33
2018-12-14T19:05:06.927Z,17.10
2018-12-14T19:07:35.679Z,16.10
2018-12-14T19:10:05.839Z,16.50
2018-12-14T19:12:34.879Z,16.30
2018-12-14T19:15:04.239Z,16.60
2018-12-14T19:17:32.932Z,15.93
2018-12-14T19:20:01.905Z,16.53
2018-12-14T19:22:30.729Z,15.73
2018-12-14T19:24:59.545Z,15.73
2018-12-14T19:27:28.275Z,15.00
2018-12-14T19:29:57.025Z,15.80
2018-12-14T19:32:32.292Z,15.77
2018-12-14T19:35:01.117Z,15.47
2018-12-14T19:37:30.065Z,14.20
2018-12-14T19:39:58.838Z,14.67
2018-12-14T19:42:27.519Z,14.57
2018-12-14T19:44:56.199Z,14.43
2018-12-14T19:47:25.062Z,13.57
2018-12-14T19:49:53.851Z,14.57
2018-12-14T19:52:22.677Z,16.97
2018-12-14T19:54:51.455Z,15.53
2018-12-14T19:57:20.925Z,15.60
2018-12-14T19:59:49.663Z,14.83
2018-12-14T20:02:18.570Z,14.43
2018-12-14T20:04:48.731Z,14.37
2018-12-14T20:07:17.576Z,14.77
2018-12-14T20:09:46.500Z,14.67
2018-12-14T20:12:15.253Z,14.93
2018-12-14T20:14:44.037Z,14.63
2018-12-14T20:17:12.793Z,13.77
2018-12-14T20:19:41.624Z,14.80
2018-12-14T20:22:10.787Z,14.37
2018-12-14T20:24:39.502Z,14.60
2018-12-14T20:27:08.260Z,13.83
2018-12-14T20:29:36.943Z,13.97
2018-12-14T20:32:05.762Z,13.97
2018-12-14T20:34:34.485Z,14.03
2018-12-14T20:37:03.303Z,13.85
2018-12-14T20:39:32.155Z,13.40
2018-12-14T20:42:00.941Z,13.20
2018-12-14T20:44:29.723Z,14.50
2018-12-14T20:46:58.536Z,13.57
2018-12-14T20:49:27.371Z,13.10
2018-12-14T20:51:56.223Z,12.50
2018-12-14T20:54:25.003Z,14.00
2018-12-14T20:56:53.699Z,12.33
2018-12-14T20:59:22.376Z,13.33
2018-12-14T21:01:51.505Z,11.80
2018-12-14T21:04:20.319Z,12.70
2018-12-14T21:06:49.128Z,11.90
2018-12-14T21:09:17.879Z,12.33
2018-12-14T21:11:46.559Z,12.57
2018-12-14T21:14:15.714Z,12.23
2018-12-14T21:16:44.343Z,14.85
2018-12-14T21:19:13.090Z,12.67
2018-12-14T21:21:41.905Z,12.17
2018-12-14T21:24:10.691Z,11.63
2018-12-14T21:26:39.438Z,11.63
2018-12-14T21:29:08.233Z,12.00
2018-12-14T21:31:36.907Z,12.20
2018-12-14T21:34:05.771Z,11.40
2018-12-14T21:36:34.704Z,12.07
2018-12-14T21:39:05.335Z,12.07
2018-12-14T21:41:36.012Z,11.93
2018-12-14T21:44:04.790Z,12.30
2018-12-14T21:46:33.477Z,11.17
2018-12-14T21:49:02.315Z,11.00
2018-12-14T21:51:31.154Z,12.03
2018-12-14T21:53:59.970Z,11.43
2018-12-14T21:56:28.721Z,12.00
2018-12-14T21:58:57.503Z,11.93
2018-12-14T22:01:26.180Z,11.77
2018-12-14T22:03:55.892Z,12.07
2018-12-14T22:06:24.579Z,12.67
2018-12-14T22:08:53.327Z,12.77
2018-12-14T22:11:22.028Z,12.57
2018-12-14T22:13:50.818Z,10.90
2018-12-14T22:16:19.651Z,11.93
2018-12-14T22:18:48.324Z,12.57
2018-12-14T22:21:17.001Z,11.83
2018-12-14T22:23:45.751Z,12.03
2018-12-14T22:26:14.429Z,11.70
2018-12-14T22:28:43.136Z,11.47
2018-12-14T22:31:11.888Z,11.83
2018-12-14T22:33:40.727Z,12.07
2018-12-14T22:36:09.498Z,12.63
2018-12-14T22:38:38.306Z,11.90
2018-12-14T22:41:07.076Z,11.83
2018-12-14T22:43:36.019Z,12.50
2018-12-14T22:46:04.838Z,11.37
2018-12-14T22:48:33.776Z,11.27
2018-12-14T22:51:02.616Z,12.93
2018-12-14T22:53:31.383Z,12.97
2018-12-14T22:56:00.132Z,11.77
2018-12-14T22:58:28.883Z,12.13
2018-12-14T23:00:57.808Z,13.33
2018-12-14T23:03:28.407Z,13.17
2018-12-14T23:05:57.293Z,13.53
2018-12-14T23:08:26.184Z,12.07
2018-12-14T23:10:54.977Z,12.00
2018-12-14T23:13:23.821Z,13.20
2018-12-14T23:15:52.743Z,13.53
2018-12-14T23:18:21.524Z,13.20
2018-12-14T23:20:50.268Z,12.73
2018-12-14T23:23:19.118Z,12.07
2018-12-14T23:25:48.565Z,11.90
2018-12-14T23:28:17.459Z,12.63
2018-12-14T23:30:46.153Z,13.40
2018-12-14T23:33:14.898Z,14.13
2018-12-14T23:35:43.775Z,13.63
2018-12-14T23:38:12.525Z,13.83
2018-12-14T23:40:41.267Z,13.30
2018-12-14T23:43:09.971Z,13.13
2018-12-14T23:45:38.657Z,12.97
2018-12-14T23:48:07.323Z,12.53
2018-12-14T23:50:36.029Z,12.20
2018-12-14T23:53:04.839Z,11.80
2018-12-14T23:55:33.527Z,11.63
2018-12-14T23:58:02.213Z,12.63
